Terminal Aerodrome Forecast
Issued by NWS

Home | Current Version | Previous Version | Graphics & Text | Print | Product List | Glossary On
Versions: 1 2 3 4 5 6 7 8 9 10 11 12 13 14 15 16 17 18 19 20 21 22 23 24
132
FTUS43 KABR 221520 AAA
TAFATY
TAF AMD
KATY 221520Z 2215/2312 02012KT P6SM -RA VCTS OVC100CB
     FM221600 32007KT 6SM SHRA OVC080
     FM221800 26007KT P6SM BKN080
     FM222100 27011KT P6SM SCT200=

USA.gov is the U.S. government's official web portal to all federal, state and local government web resources and services.